createdAt,value
2022-08-11T00:02:15.054Z,17.89
2022-08-11T00:04:26.815Z,17.96
2022-08-11T00:06:38.060Z,17.88
2022-08-11T00:08:53.369Z,17.94
2022-08-11T00:11:05.284Z,17.79
2022-08-11T00:13:14.984Z,17.71
2022-08-11T00:15:30.784Z,17.65
2022-08-11T00:17:40.810Z,17.67
2022-08-11T00:20:13.769Z,17.68
2022-08-11T00:22:25.536Z,17.60
2022-08-11T00:24:50.946Z,17.60
2022-08-11T00:27:04.101Z,17.47
2022-08-11T00:29:13.136Z,17.63
2022-08-11T00:31:32.768Z,17.65
2022-08-11T00:33:45.438Z,17.59
2022-08-11T00:35:59.611Z,17.57
2022-08-11T00:38:10.172Z,17.61
2022-08-11T00:40:26.406Z,17.71
2022-08-11T00:42:45.262Z,17.88
2022-08-11T00:45:07.987Z,17.90
2022-08-11T00:47:33.424Z,17.78
2022-08-11T00:49:57.128Z,17.72
2022-08-11T00:52:20.651Z,17.84
2022-08-11T00:54:46.621Z,17.71
2022-08-11T00:57:36.754Z,17.73
2022-08-11T01:00:07.087Z,17.55
2022-08-11T01:03:00.079Z,17.57
2022-08-11T01:05:43.111Z,17.59
2022-08-11T01:08:28.818Z,17.60
2022-08-11T01:10:56.049Z,17.93
2022-08-11T01:13:18.103Z,17.90
2022-08-11T01:16:08.093Z,17.93
2022-08-11T01:18:48.777Z,18.05
2022-08-11T01:21:44.353Z,17.96
2022-08-11T01:24:45.015Z,17.86
2022-08-11T01:27:18.894Z,17.93
2022-08-11T01:30:00.405Z,17.93
2022-08-11T01:32:35.060Z,17.85
2022-08-11T01:35:24.645Z,17.89
2022-08-11T01:38:08.818Z,18.01
2022-08-11T01:40:33.460Z,18.02
2022-08-11T01:43:30.559Z,18.02
2022-08-11T01:45:46.613Z,17.99
2022-08-11T01:48:05.869Z,17.86
2022-08-11T01:50:31.030Z,17.67
2022-08-11T01:52:54.174Z,17.55
2022-08-11T01:55:15.980Z,17.45
2022-08-11T01:57:37.470Z,17.33
2022-08-11T01:59:54.832Z,17.33
2022-08-11T02:02:46.754Z,17.27
2022-08-11T02:05:00.537Z,17.17
2022-08-11T02:07:22.253Z,17.14
2022-08-11T02:09:52.599Z,17.25
2022-08-11T02:12:04.090Z,17.17
2022-08-11T02:14:22.565Z,17.10
2022-08-11T02:16:46.146Z,17.09
2022-08-11T02:19:16.478Z,17.20
2022-08-11T02:21:51.661Z,17.34
2022-08-11T02:24:08.254Z,17.35
2022-08-11T02:26:23.436Z,17.37
2022-08-11T02:28:38.996Z,17.42
2022-08-11T02:32:23.878Z,17.41
2022-08-11T02:33:47.856Z,17.42
2022-08-11T02:36:06.806Z,17.37
2022-08-11T02:38:27.603Z,17.22
2022-08-11T02:40:49.874Z,17.07
2022-08-11T02:43:15.334Z,16.88
2022-08-11T02:45:40.596Z,16.76
2022-08-11T02:48:13.570Z,16.66
2022-08-11T02:50:33.964Z,16.51
2022-08-11T02:52:50.551Z,16.34
2022-08-11T02:55:56.614Z,16.16
2022-08-11T02:57:58.161Z,16.03
2022-08-11T03:00:11.000Z,16.28
2022-08-11T03:02:44.369Z,16.27
2022-08-11T03:05:05.073Z,16.27
2022-08-11T03:07:28.948Z,16.15
2022-08-11T03:09:50.343Z,16.01
2022-08-11T03:12:18.123Z,15.90
2022-08-11T03:14:46.534Z,15.85
2022-08-11T03:17:00.463Z,15.85
2022-08-11T03:19:19.111Z,15.78
2022-08-11T03:22:01.593Z,15.64
2022-08-11T03:24:08.309Z,15.54
2022-08-11T03:26:27.222Z,15.56
2022-08-11T03:28:41.188Z,15.60
2022-08-11T03:31:00.078Z,15.69
2022-08-11T03:33:31.087Z,15.64
2022-08-11T03:35:49.792Z,15.68
2022-08-11T03:38:05.744Z,15.88
2022-08-11T03:40:49.254Z,15.68
2022-08-11T03:43:04.591Z,15.51
2022-08-11T03:45:29.175Z,15.63
2022-08-11T03:47:55.657Z,15.49
2022-08-11T03:50:12.090Z,15.33
2022-08-11T03:52:30.246Z,15.33
2022-08-11T03:54:51.195Z,15.46
2022-08-11T03:57:43.451Z,15.46
2022-08-11T04:00:23.996Z,15.43
2022-08-11T04:02:55.787Z,15.31
2022-08-11T04:05:44.749Z,15.28
2022-08-11T04:08:23.801Z,15.26
2022-08-11T04:11:04.588Z,15.22
2022-08-11T04:13:45.423Z,15.43
2022-08-11T04:16:16.459Z,15.44
2022-08-11T04:18:57.433Z,15.53
2022-08-11T04:21:25.486Z,15.47
2022-08-11T04:24:36.255Z,15.48
2022-08-11T04:26:59.318Z,15.45
2022-08-11T04:29:36.006Z,15.40
2022-08-11T04:32:10.762Z,15.38
2022-08-11T04:34:42.679Z,15.46
2022-08-11T04:37:25.769Z,15.60
2022-08-11T04:39:51.500Z,16.08
2022-08-11T04:42:45.401Z,16.89
2022-08-11T04:45:33.964Z,18.10
2022-08-11T04:48:12.990Z,19.14
2022-08-11T04:51:04.036Z,20.16
2022-08-11T04:53:42.769Z,21.36
2022-08-11T04:56:27.244Z,22.77
2022-08-11T04:59:05.165Z,23.91
2022-08-11T05:01:39.708Z,25.16
2022-08-11T05:04:44.287Z,25.49
2022-08-11T05:07:26.090Z,26.74
2022-08-11T05:10:05.864Z,27.60
2022-08-11T05:12:32.973Z,28.33
2022-08-11T05:15:03.689Z,28.91
2022-08-11T05:17:29.957Z,29.49
2022-08-11T05:19:51.859Z,29.69
2022-08-11T05:22:17.031Z,30.31
2022-08-11T05:24:45.755Z,30.63
2022-08-11T05:27:12.835Z,31.14
2022-08-11T05:29:51.707Z,30.76
2022-08-11T05:32:16.377Z,30.99
2022-08-11T05:34:40.890Z,30.72
2022-08-11T05:36:59.120Z,30.27
2022-08-11T05:39:36.135Z,30.56
2022-08-11T05:41:58.362Z,31.01
2022-08-11T05:44:22.257Z,31.35
2022-08-11T05:46:44.278Z,33.02
2022-08-11T05:49:09.091Z,32.36
2022-08-11T05:51:31.055Z,32.89
2022-08-11T05:53:58.396Z,32.16
2022-08-11T05:56:21.995Z,32.66
2022-08-11T05:58:39.764Z,32.46
2022-08-11T06:00:50.800Z,32.60
2022-08-11T06:03:04.200Z,32.67
2022-08-11T06:05:13.330Z,33.97
2022-08-11T06:07:29.978Z,33.41
2022-08-11T06:09:57.644Z,33.72
2022-08-11T06:12:11.587Z,33.44
2022-08-11T06:14:21.232Z,29.52
2022-08-11T06:16:31.160Z,29.21
2022-08-11T06:18:40.879Z,27.91
2022-08-11T06:20:51.301Z,29.34
2022-08-11T06:23:03.940Z,30.62
2022-08-11T06:25:14.454Z,30.44
2022-08-11T06:27:26.884Z,30.36
2022-08-11T06:29:38.127Z,31.09
2022-08-11T06:32:13.066Z,29.79
2022-08-11T06:34:38.223Z,30.66
2022-08-11T06:36:58.192Z,29.75
2022-08-11T06:39:21.385Z,28.61
2022-08-11T06:41:43.741Z,29.15
2022-08-11T06:44:05.589Z,27.47
2022-08-11T06:46:28.146Z,28.72
2022-08-11T06:48:37.895Z,30.05
2022-08-11T06:51:05.013Z,29.04
2022-08-11T06:53:13.808Z,28.60
2022-08-11T06:55:57.673Z,28.75
2022-08-11T06:58:20.580Z,28.39
2022-08-11T07:00:35.653Z,27.63
2022-08-11T07:02:52.480Z,28.56
2022-08-11T07:05:04.470Z,28.91
2022-08-11T07:08:34.798Z,28.01
2022-08-11T07:11:11.060Z,28.34
2022-08-11T07:13:39.389Z,27.79
2022-08-11T07:16:12.979Z,28.34
2022-08-11T07:18:41.083Z,27.80
2022-08-11T07:21:02.569Z,27.79
2022-08-11T07:23:25.230Z,27.81
2022-08-11T07:25:48.640Z,29.92
2022-08-11T07:28:18.319Z,29.15
2022-08-11T07:30:28.765Z,28.83
2022-08-11T07:32:47.392Z,28.39
2022-08-11T07:35:02.378Z,28.22
2022-08-11T07:37:16.333Z,28.25
2022-08-11T07:39:31.659Z,29.35
2022-08-11T07:41:43.730Z,30.13
2022-08-11T07:43:55.725Z,30.46
2022-08-11T07:46:19.704Z,29.04
2022-08-11T07:48:44.072Z,28.77
2022-08-11T07:51:05.251Z,30.48
2022-08-11T07:53:16.019Z,32.25
2022-08-11T07:55:49.143Z,30.08
2022-08-11T07:58:15.249Z,29.34
2022-08-11T08:00:37.490Z,28.64
2022-08-11T08:02:59.177Z,28.82
2022-08-11T08:05:23.684Z,27.11
2022-08-11T08:07:44.547Z,26.33
2022-08-11T08:10:09.137Z,25.51
2022-08-11T08:12:37.629Z,25.33
2022-08-11T08:14:58.523Z,25.08
2022-08-11T08:17:24.260Z,25.28
2022-08-11T08:19:34.180Z,24.92
2022-08-11T08:21:46.910Z,24.79
2022-08-11T08:23:57.687Z,24.72
2022-08-11T08:26:31.745Z,24.81
2022-08-11T08:28:40.308Z,24.52
2022-08-11T08:30:50.759Z,24.37
2022-08-11T08:33:01.286Z,24.44
2022-08-11T08:35:11.607Z,24.64
2022-08-11T08:37:46.117Z,24.56
2022-08-11T08:39:55.829Z,24.39
2022-08-11T08:42:08.753Z,24.50
2022-08-11T08:44:37.810Z,24.59
2022-08-11T08:46:49.399Z,24.61
2022-08-11T08:48:58.536Z,24.56
2022-08-11T08:51:25.104Z,24.64
2022-08-11T08:53:39.251Z,24.43
2022-08-11T08:56:04.367Z,24.50
2022-08-11T08:58:14.797Z,24.69
2022-08-11T09:00:23.847Z,24.78
2022-08-11T09:02:34.007Z,24.76
2022-08-11T09:04:47.742Z,24.77
2022-08-11T09:06:57.291Z,24.87
2022-08-11T09:09:09.092Z,24.98
2022-08-11T09:11:30.547Z,25.05
2022-08-11T09:13:44.661Z,25.27
2022-08-11T09:15:56.274Z,25.60
2022-08-11T09:18:06.588Z,26.48
2022-08-11T09:20:18.613Z,26.69
2022-08-11T09:22:40.798Z,27.03
2022-08-11T09:25:04.898Z,27.33
2022-08-11T09:27:16.173Z,27.69
2022-08-11T09:29:24.992Z,27.94
2022-08-11T09:31:40.135Z,27.67
2022-08-11T09:33:50.078Z,27.84
2022-08-11T09:36:21.022Z,27.23
2022-08-11T09:38:47.348Z,25.97
2022-08-11T09:41:00.820Z,26.26
2022-08-11T09:43:25.543Z,27.49
2022-08-11T09:45:40.534Z,28.23
2022-08-11T09:47:49.552Z,28.90
2022-08-11T09:50:02.813Z,29.42
2022-08-11T09:52:11.367Z,28.44
2022-08-11T09:54:23.501Z,28.00
2022-08-11T09:56:54.126Z,27.80
2022-08-11T09:59:06.389Z,26.88
2022-08-11T10:01:27.666Z,28.53
2022-08-11T10:03:40.594Z,27.83
2022-08-11T10:06:07.902Z,28.36
2022-08-11T10:08:21.964Z,28.99
2022-08-11T10:10:30.740Z,28.62
2022-08-11T10:12:50.495Z,28.92
2022-08-11T10:15:18.225Z,28.77
2022-08-11T10:17:27.754Z,28.45
2022-08-11T10:19:41.985Z,29.20
2022-08-11T10:22:14.879Z,28.24
2022-08-11T10:24:35.910Z,28.24
2022-08-11T10:27:00.095Z,28.24
2022-08-11T10:29:25.833Z,28.62
2022-08-11T10:31:59.431Z,28.90
2022-08-11T10:34:13.685Z,29.22
2022-08-11T10:36:24.406Z,28.45
2022-08-11T10:38:33.856Z,28.25
2022-08-11T10:40:44.175Z,27.76
2022-08-11T10:43:07.740Z,28.00
2022-08-11T10:45:31.801Z,29.16
2022-08-11T10:47:46.717Z,29.63
2022-08-11T10:50:11.186Z,28.96
2022-08-11T10:52:34.911Z,30.51
2022-08-11T10:54:58.678Z,29.21
2022-08-11T10:57:19.939Z,28.08
2022-08-11T10:59:31.077Z,27.83
2022-08-11T11:01:45.729Z,28.95
2022-08-11T11:03:59.044Z,30.03
2022-08-11T11:06:29.403Z,28.94
2022-08-11T11:09:01.526Z,29.32
2022-08-11T11:11:12.709Z,28.34
2022-08-11T11:13:42.546Z,28.04
2022-08-11T11:16:14.458Z,28.02
2022-08-11T11:18:29.174Z,27.89
2022-08-11T11:20:47.480Z,27.76
2022-08-11T11:22:59.501Z,27.95
2022-08-11T11:25:24.207Z,27.82
2022-08-11T11:27:46.518Z,27.50
2022-08-11T11:30:03.072Z,27.68
2022-08-11T11:32:30.799Z,27.94
2022-08-11T11:35:14.868Z,28.27
2022-08-11T11:37:26.905Z,27.59
2022-08-11T11:39:35.987Z,27.32
2022-08-11T11:41:45.969Z,27.70
2022-08-11T11:43:54.877Z,27.74
2022-08-11T11:46:03.657Z,27.47
2022-08-11T11:48:15.069Z,27.42
2022-08-11T11:50:29.378Z,27.51
2022-08-11T11:52:45.875Z,27.29
2022-08-11T11:54:58.488Z,27.18
2022-08-11T11:57:21.311Z,27.67
2022-08-11T11:59:44.051Z,27.11
2022-08-11T12:01:52.850Z,27.43
2022-08-11T12:04:02.245Z,27.44
2022-08-11T12:06:14.472Z,27.50
2022-08-11T12:08:28.925Z,27.55
2022-08-11T12:10:37.609Z,27.80
2022-08-11T12:12:59.063Z,27.64
2022-08-11T12:15:11.125Z,27.64
2022-08-11T12:17:19.565Z,27.88
2022-08-11T12:19:35.798Z,27.64
2022-08-11T12:22:07.030Z,27.60
2022-08-11T12:24:30.294Z,28.00
2022-08-11T12:27:01.459Z,27.63
2022-08-11T12:29:27.362Z,27.51
2022-08-11T12:31:38.233Z,27.47
2022-08-11T12:33:48.725Z,27.65
2022-08-11T12:36:01.583Z,27.66
2022-08-11T12:38:12.815Z,27.98
2022-08-11T12:41:11.876Z,27.59
2022-08-11T12:43:39.050Z,27.58
2022-08-11T12:45:48.584Z,27.71
2022-08-11T12:48:59.079Z,27.81
2022-08-11T12:51:01.384Z,27.72
2022-08-11T12:53:13.235Z,28.09
2022-08-11T12:55:40.377Z,27.90
2022-08-11T12:58:08.086Z,27.82
2022-08-11T13:00:30.841Z,28.23
2022-08-11T13:02:52.112Z,28.05
2022-08-11T13:05:02.477Z,27.94
2022-08-11T13:07:11.597Z,27.79
2022-08-11T13:09:20.409Z,27.55
2022-08-11T13:11:56.380Z,27.72
2022-08-11T13:14:12.097Z,27.87
2022-08-11T13:16:25.628Z,27.87
2022-08-11T13:18:33.617Z,28.17
2022-08-11T13:20:44.470Z,28.34
2022-08-11T13:22:54.415Z,28.52
2022-08-11T13:25:02.986Z,27.82
2022-08-11T13:27:14.308Z,27.69
2022-08-11T13:29:24.490Z,27.76
2022-08-11T13:31:30.465Z,27.86
2022-08-11T13:33:43.654Z,28.03
2022-08-11T13:35:56.119Z,28.34
2022-08-11T13:38:19.534Z,28.11
2022-08-11T13:40:45.729Z,27.92
2022-08-11T13:43:06.375Z,27.80
2022-08-11T13:45:15.279Z,27.79
2022-08-11T13:47:25.052Z,27.85
2022-08-11T13:49:34.553Z,28.14
2022-08-11T13:51:43.592Z,28.22
2022-08-11T13:53:52.522Z,28.07
2022-08-11T13:56:06.447Z,28.00
2022-08-11T13:58:39.894Z,28.29
2022-08-11T14:00:53.165Z,28.54
2022-08-11T14:03:02.217Z,28.63
2022-08-11T14:05:16.259Z,28.57
2022-08-11T14:07:28.800Z,28.43
2022-08-11T14:09:40.579Z,28.31
2022-08-11T14:12:21.054Z,28.59
2022-08-11T14:14:36.582Z,28.58
2022-08-11T14:16:47.621Z,28.42
2022-08-11T14:18:59.033Z,28.18
2022-08-11T14:21:22.939Z,28.02
2022-08-11T14:23:34.774Z,27.87
2022-08-11T14:26:05.618Z,27.88
2022-08-11T14:28:32.924Z,28.28
2022-08-11T14:31:01.224Z,28.26
2022-08-11T14:33:17.182Z,28.31
2022-08-11T14:35:31.369Z,28.32
2022-08-11T14:37:40.579Z,28.21
2022-08-11T14:39:51.157Z,28.31
2022-08-11T14:42:14.450Z,28.14
2022-08-11T14:44:35.501Z,27.85
2022-08-11T14:46:59.602Z,27.91
2022-08-11T14:49:08.399Z,27.83
2022-08-11T14:51:16.710Z,27.89
2022-08-11T14:53:26.825Z,28.18
2022-08-11T14:55:53.195Z,28.14
2022-08-11T14:58:02.462Z,27.93
2022-08-11T15:00:15.639Z,27.88
2022-08-11T15:02:39.723Z,27.97
2022-08-11T15:04:48.697Z,28.08
2022-08-11T15:06:57.318Z,28.08
2022-08-11T15:09:08.988Z,28.08
2022-08-11T15:11:32.378Z,28.15
2022-08-11T15:13:40.831Z,28.25
2022-08-11T15:16:05.760Z,28.12
2022-08-11T15:18:18.760Z,27.93
2022-08-11T15:20:41.905Z,27.88
2022-08-11T15:23:02.856Z,28.01
2022-08-11T15:25:11.912Z,27.89
2022-08-11T15:27:35.736Z,27.84
2022-08-11T15:29:58.664Z,27.91
2022-08-11T15:32:20.156Z,27.96
2022-08-11T15:34:44.807Z,28.03
2022-08-11T15:37:10.437Z,28.21
2022-08-11T15:39:24.527Z,28.01
2022-08-11T15:41:58.776Z,28.00
2022-08-11T15:44:44.579Z,27.96
2022-08-11T15:47:01.773Z,27.93
2022-08-11T15:49:21.815Z,27.98
2022-08-11T15:51:39.120Z,27.77
2022-08-11T15:53:56.661Z,27.70
2022-08-11T15:56:07.165Z,27.88
2022-08-11T15:58:29.534Z,27.92
2022-08-11T16:00:53.987Z,27.79
2022-08-11T16:03:24.109Z,27.69
2022-08-11T16:05:53.249Z,27.70
2022-08-11T16:08:04.698Z,27.57
2022-08-11T16:10:21.845Z,27.58
2022-08-11T16:12:34.205Z,27.60
2022-08-11T16:14:58.823Z,27.57
2022-08-11T16:17:10.106Z,27.48
2022-08-11T16:19:19.879Z,27.46
2022-08-11T16:21:35.050Z,27.57
2022-08-11T16:23:50.541Z,27.49
2022-08-11T16:27:07.646Z,27.52
2022-08-11T16:28:34.982Z,27.63
2022-08-11T16:30:46.627Z,27.55
2022-08-11T16:32:56.457Z,27.47
2022-08-11T16:35:20.367Z,27.38
2022-08-11T16:37:43.589Z,27.29
2022-08-11T16:39:55.252Z,27.15
2022-08-11T16:43:09.148Z,27.14
2022-08-11T16:44:56.447Z,27.21
2022-08-11T16:47:06.205Z,27.14
2022-08-11T16:49:20.054Z,27.08
2022-08-11T16:51:28.384Z,27.01
2022-08-11T16:53:59.570Z,26.99
2022-08-11T16:56:12.291Z,27.04
2022-08-11T16:58:33.651Z,27.03
2022-08-11T17:00:42.853Z,27.06
2022-08-11T17:03:06.713Z,26.97
2022-08-11T17:05:29.417Z,27.01
2022-08-11T17:07:54.257Z,27.00
2022-08-11T17:10:38.266Z,26.98
2022-08-11T17:13:05.294Z,26.93
2022-08-11T17:15:29.974Z,26.85
2022-08-11T17:17:41.681Z,26.86
2022-08-11T17:20:40.173Z,26.74
2022-08-11T17:22:35.897Z,26.74
2022-08-11T17:24:48.160Z,26.71
2022-08-11T17:26:58.942Z,26.71
2022-08-11T17:29:10.330Z,26.65
2022-08-11T17:31:32.054Z,26.58
2022-08-11T17:33:54.235Z,26.52
2022-08-11T17:36:03.912Z,26.55
2022-08-11T17:38:16.022Z,26.57
2022-08-11T17:40:26.329Z,26.59
2022-08-11T17:42:50.541Z,26.55
2022-08-11T17:45:17.214Z,26.47
2022-08-11T17:47:41.958Z,26.45
2022-08-11T17:49:54.091Z,26.35
2022-08-11T17:52:25.380Z,26.32
2022-08-11T17:54:50.642Z,26.35
2022-08-11T17:57:21.406Z,26.22
2022-08-11T17:59:43.826Z,26.06
2022-08-11T18:02:33.969Z,25.99
2022-08-11T18:04:45.189Z,25.88
2022-08-11T18:06:56.976Z,25.73
2022-08-11T18:09:20.074Z,25.71
2022-08-11T18:12:06.389Z,25.66
2022-08-11T18:14:27.807Z,25.51
2022-08-11T18:16:48.882Z,25.29
2022-08-11T18:19:12.109Z,25.11
2022-08-11T18:21:43.284Z,24.99
2022-08-11T18:24:06.330Z,24.81
2022-08-11T18:26:28.267Z,24.75
2022-08-11T18:28:58.760Z,24.57
2022-08-11T18:31:22.623Z,24.39
2022-08-11T18:34:06.571Z,24.23
2022-08-11T18:36:36.604Z,24.12
2022-08-11T18:38:59.639Z,24.05
2022-08-11T18:41:23.994Z,24.10
2022-08-11T18:43:51.254Z,23.94
2022-08-11T18:46:18.513Z,23.70
2022-08-11T18:48:40.612Z,23.48
2022-08-11T18:51:30.035Z,23.26
2022-08-11T18:53:53.401Z,23.08
2022-08-11T18:56:20.718Z,22.96
2022-08-11T18:58:44.932Z,22.87
2022-08-11T19:01:06.911Z,22.76
2022-08-11T19:03:29.834Z,22.91
2022-08-11T19:06:32.350Z,23.03
2022-08-11T19:08:36.673Z,23.10
2022-08-11T19:11:01.926Z,23.01
2022-08-11T19:13:25.194Z,23.00
2022-08-11T19:15:47.217Z,22.93
2022-08-11T19:18:09.349Z,22.69
2022-08-11T19:20:33.281Z,22.66
2022-08-11T19:22:54.019Z,22.59
2022-08-11T19:25:16.157Z,22.64
2022-08-11T19:27:43.202Z,22.55
2022-08-11T19:30:13.511Z,22.50
2022-08-11T19:32:37.664Z,22.56
2022-08-11T19:34:59.287Z,22.32
2022-08-11T19:37:24.658Z,22.17
2022-08-11T19:39:47.337Z,22.20
2022-08-11T19:42:08.746Z,22.23
2022-08-11T19:44:32.992Z,22.27
2022-08-11T19:47:02.910Z,22.41
2022-08-11T19:49:28.493Z,22.32
2022-08-11T19:51:53.642Z,22.11
2022-08-11T19:54:16.197Z,21.98
2022-08-11T19:56:37.541Z,22.10
2022-08-11T19:58:59.103Z,22.10
2022-08-11T20:01:22.631Z,21.90
2022-08-11T20:03:43.719Z,21.76
2022-08-11T20:06:05.395Z,21.89
2022-08-11T20:08:26.214Z,22.11
2022-08-11T20:10:49.227Z,22.18
2022-08-11T20:13:11.757Z,22.23
2022-08-11T20:15:43.177Z,22.37
2022-08-11T20:18:07.438Z,22.54
2022-08-11T20:20:30.565Z,22.53
2022-08-11T20:22:53.642Z,22.55
2022-08-11T20:25:14.602Z,22.47
2022-08-11T20:27:35.902Z,22.38
2022-08-11T20:29:58.003Z,22.48
2022-08-11T20:32:19.692Z,22.33
2022-08-11T20:34:45.297Z,22.28
2022-08-11T20:37:07.590Z,22.17
2022-08-11T20:39:30.440Z,21.93
2022-08-11T20:41:58.443Z,21.90
2022-08-11T20:44:21.184Z,21.84
2022-08-11T20:46:43.790Z,21.60
2022-08-11T20:49:07.012Z,21.92
2022-08-11T20:51:33.843Z,21.91
2022-08-11T20:53:59.745Z,21.91
2022-08-11T20:56:28.490Z,21.78
2022-08-11T21:01:38.256Z,21.75
2022-08-11T21:03:59.761Z,22.02
2022-08-11T21:06:26.221Z,22.10
2022-08-11T21:08:57.261Z,22.11
2022-08-11T21:11:27.612Z,22.03
2022-08-11T21:13:52.857Z,22.10
2022-08-11T21:16:25.939Z,21.97
2022-08-11T21:18:49.669Z,21.84
2022-08-11T21:21:16.412Z,21.70
2022-08-11T21:23:39.270Z,21.64
2022-08-11T21:26:10.723Z,21.55
2022-08-11T21:28:33.807Z,21.35
2022-08-11T21:30:58.163Z,21.19
2022-08-11T21:33:19.082Z,21.14
2022-08-11T21:35:45.046Z,21.07
2022-08-11T21:38:08.984Z,20.99
2022-08-11T21:40:31.859Z,20.80
2022-08-11T21:42:58.978Z,20.70
2022-08-11T21:45:22.675Z,20.59
2022-08-11T21:47:45.209Z,20.48
2022-08-11T21:50:05.920Z,20.42
2022-08-11T21:52:26.620Z,20.26
2022-08-11T21:54:47.655Z,20.16
2022-08-11T21:57:09.955Z,20.01
2022-08-11T21:59:38.958Z,20.01
2022-08-11T22:02:00.680Z,20.01
2022-08-11T22:04:22.165Z,20.03
2022-08-11T22:06:56.035Z,19.98
2022-08-11T22:09:27.231Z,19.87
2022-08-11T22:12:29.798Z,19.88
2022-08-11T22:14:58.854Z,19.76
2022-08-11T22:17:19.700Z,19.85
2022-08-11T22:19:50.452Z,19.85
2022-08-11T22:22:13.293Z,19.70
2022-08-11T22:24:40.339Z,19.71
2022-08-11T22:27:02.019Z,19.59
2022-08-11T22:29:50.767Z,19.52
2022-08-11T22:32:07.696Z,19.43
2022-08-11T22:34:30.646Z,19.48
2022-08-11T22:36:52.852Z,19.51
2022-08-11T22:39:15.428Z,19.47
2022-08-11T22:41:37.011Z,19.53
2022-08-11T22:43:58.196Z,19.52
2022-08-11T22:46:19.149Z,19.69
2022-08-11T22:48:45.135Z,19.55
2022-08-11T22:51:07.519Z,19.47
2022-08-11T22:53:57.428Z,19.54
2022-08-11T22:56:11.924Z,19.42
2022-08-11T22:58:35.034Z,19.42
2022-08-11T23:00:56.494Z,19.70
2022-08-11T23:03:38.178Z,19.86
2022-08-11T23:06:02.321Z,19.84
2022-08-11T23:08:26.366Z,19.78
2022-08-11T23:10:48.480Z,19.73
2022-08-11T23:13:09.669Z,19.64
2022-08-11T23:15:31.201Z,19.53
2022-08-11T23:17:52.327Z,19.40
2022-08-11T23:20:29.810Z,19.23
2022-08-11T23:22:58.105Z,19.15
2022-08-11T23:25:19.038Z,19.02
2022-08-11T23:27:41.442Z,19.13
2022-08-11T23:30:03.646Z,19.16
2022-08-11T23:32:24.332Z,19.24
2022-08-11T23:35:36.991Z,19.29
2022-08-11T23:37:30.317Z,19.30
2022-08-11T23:40:01.930Z,19.42
2022-08-11T23:42:22.908Z,19.42
2022-08-11T23:44:46.443Z,19.46
2022-08-11T23:47:10.249Z,19.29
2022-08-11T23:49:32.205Z,19.33
2022-08-11T23:51:54.714Z,19.37
2022-08-11T23:54:16.202Z,19.45
2022-08-11T23:56:42.793Z,19.42
2022-08-11T23:59:04.585Z,19.27
